sensor_id;sensor_type;location;lat;lon;timestamp;temperature;humidity
39095;DHT22;24840;47.508;19.376;2022-12-10T00:00:20;5.50;99.90
39095;DHT22;24840;47.508;19.376;2022-12-10T00:02:46;5.50;99.90
39095;DHT22;24840;47.508;19.376;2022-12-10T00:05:12;5.60;99.90
39095;DHT22;24840;47.508;19.376;2022-12-10T00:11:02;5.60;99.90
39095;DHT22;24840;47.508;19.376;2022-12-10T00:13:28;5.60;99.90
39095;DHT22;24840;47.508;19.376;2022-12-10T00:15:54;5.60;99.90
39095;DHT22;24840;47.508;19.376;2022-12-10T00:18:19;5.60;99.90
39095;DHT22;24840;47.508;19.376;2022-12-10T00:20:45;5.60;99.90
39095;DHT22;24840;47.508;19.376;2022-12-10T00:23:11;5.60;99.90
39095;DHT22;24840;47.508;19.376;2022-12-10T00:25:37;5.60;99.90
39095;DHT22;24840;47.508;19.376;2022-12-10T00:28:03;5.60;99.90
39095;DHT22;24840;47.508;19.376;2022-12-10T00:30:29;5.60;99.90
39095;DHT22;24840;47.508;19.376;2022-12-10T00:32:55;5.60;99.90
39095;DHT22;24840;47.508;19.376;2022-12-10T00:35:20;5.60;99.90
39095;DHT22;24840;47.508;19.376;2022-12-10T00:41:08;5.60;99.90
39095;DHT22;24840;47.508;19.376;2022-12-10T00:43:34;5.60;99.90
39095;DHT22;24840;47.508;19.376;2022-12-10T00:46:01;5.70;99.90
39095;DHT22;24840;47.508;19.376;2022-12-10T00:52:02;5.70;99.90
39095;DHT22;24840;47.508;19.376;2022-12-10T00:54:28;5.70;99.90
39095;DHT22;24840;47.508;19.376;2022-12-10T00:56:54;5.70;99.90
39095;DHT22;24840;47.508;19.376;2022-12-10T01:02:41;5.70;99.90
39095;DHT22;24840;47.508;19.376;2022-12-10T01:05:07;5.70;99.90
39095;DHT22;24840;47.508;19.376;2022-12-10T01:07:33;5.80;99.90
39095;DHT22;24840;47.508;19.376;2022-12-10T01:09:59;5.70;99.90
39095;DHT22;24840;47.508;19.376;2022-12-10T01:12:25;5.80;99.90
39095;DHT22;24840;47.508;19.376;2022-12-10T01:14:50;5.70;99.90
39095;DHT22;24840;47.508;19.376;2022-12-10T01:17:16;5.80;99.90
39095;DHT22;24840;47.508;19.376;2022-12-10T01:19:42;5.80;99.90
39095;DHT22;24840;47.508;19.376;2022-12-10T01:25:30;5.90;99.90
39095;DHT22;24840;47.508;19.376;2022-12-10T01:27:56;5.90;99.90
39095;DHT22;24840;47.508;19.376;2022-12-10T01:30:22;5.90;99.90
39095;DHT22;24840;47.508;19.376;2022-12-10T01:32:48;5.90;99.90
39095;DHT22;24840;47.508;19.376;2022-12-10T01:35:13;5.90;99.90
39095;DHT22;24840;47.508;19.376;2022-12-10T01:37:39;5.90;99.90
39095;DHT22;24840;47.508;19.376;2022-12-10T01:40:05;6.00;99.90
39095;DHT22;24840;47.508;19.376;2022-12-10T01:42:31;6.00;99.90
39095;DHT22;24840;47.508;19.376;2022-12-10T01:45:00;6.00;99.90
39095;DHT22;24840;47.508;19.376;2022-12-10T01:47:27;6.10;99.90
39095;DHT22;24840;47.508;19.376;2022-12-10T01:49:53;6.20;99.90
39095;DHT22;24840;47.508;19.376;2022-12-10T01:52:19;6.20;99.90
39095;DHT22;24840;47.508;19.376;2022-12-10T01:54:46;6.10;99.90
39095;DHT22;24840;47.508;19.376;2022-12-10T01:57:38;6.40;99.90
39095;DHT22;24840;47.508;19.376;2022-12-10T02:00:05;6.30;99.90
39095;DHT22;24840;47.508;19.376;2022-12-10T02:02:54;6.40;99.90
39095;DHT22;24840;47.508;19.376;2022-12-10T02:05:33;6.30;99.90
39095;DHT22;24840;47.508;19.376;2022-12-10T02:08:16;6.40;99.90
39095;DHT22;24840;47.508;19.376;2022-12-10T02:13:21;6.40;99.90
39095;DHT22;24840;47.508;19.376;2022-12-10T02:16:04;6.40;99.90
39095;DHT22;24840;47.508;19.376;2022-12-10T02:18:37;6.30;99.90
39095;DHT22;24840;47.508;19.376;2022-12-10T02:21:06;6.30;99.90
39095;DHT22;24840;47.508;19.376;2022-12-10T02:23:39;6.30;99.90
39095;DHT22;24840;47.508;19.376;2022-12-10T02:26:19;6.30;99.90
39095;DHT22;24840;47.508;19.376;2022-12-10T02:29:05;6.40;99.90
39095;DHT22;24840;47.508;19.376;2022-12-10T02:31:32;6.30;99.90
39095;DHT22;24840;47.508;19.376;2022-12-10T02:34:01;6.30;99.90
39095;DHT22;24840;47.508;19.376;2022-12-10T02:39:54;6.30;99.90
39095;DHT22;24840;47.508;19.376;2022-12-10T02:42:23;6.30;99.90
39095;DHT22;24840;47.508;19.376;2022-12-10T02:44:51;6.30;99.90
39095;DHT22;24840;47.508;19.376;2022-12-10T02:47:18;6.20;99.90
39095;DHT22;24840;47.508;19.376;2022-12-10T02:49:47;6.20;99.90
39095;DHT22;24840;47.508;19.376;2022-12-10T02:52:16;6.20;99.90
39095;DHT22;24840;47.508;19.376;2022-12-10T02:54:48;6.20;99.90
39095;DHT22;24840;47.508;19.376;2022-12-10T03:05:03;6.20;99.90
39095;DHT22;24840;47.508;19.376;2022-12-10T03:08:00;6.20;99.90
39095;DHT22;24840;47.508;19.376;2022-12-10T03:10:35;6.10;99.90
39095;DHT22;24840;47.508;19.376;2022-12-10T03:13:07;6.20;99.90
39095;DHT22;24840;47.508;19.376;2022-12-10T03:15:35;6.30;99.90
39095;DHT22;24840;47.508;19.376;2022-12-10T03:18:03;6.20;99.90
39095;DHT22;24840;47.508;19.376;2022-12-10T03:20:32;6.30;99.90
39095;DHT22;24840;47.508;19.376;2022-12-10T03:22:59;6.30;99.90
39095;DHT22;24840;47.508;19.376;2022-12-10T03:28:55;6.30;99.90
39095;DHT22;24840;47.508;19.376;2022-12-10T03:31:22;6.30;99.90
39095;DHT22;24840;47.508;19.376;2022-12-10T03:33:48;6.30;99.90
39095;DHT22;24840;47.508;19.376;2022-12-10T03:36:16;6.30;99.90
39095;DHT22;24840;47.508;19.376;2022-12-10T03:38:42;6.30;99.90
39095;DHT22;24840;47.508;19.376;2022-12-10T03:41:08;6.40;99.90
39095;DHT22;24840;47.508;19.376;2022-12-10T03:43:34;6.40;99.90
39095;DHT22;24840;47.508;19.376;2022-12-10T03:46:03;6.40;99.90
39095;DHT22;24840;47.508;19.376;2022-12-10T03:48:29;6.40;99.90
39095;DHT22;24840;47.508;19.376;2022-12-10T03:50:54;6.30;99.90
39095;DHT22;24840;47.508;19.376;2022-12-10T03:53:20;6.30;99.90
39095;DHT22;24840;47.508;19.376;2022-12-10T03:55:46;6.30;99.90
39095;DHT22;24840;47.508;19.376;2022-12-10T03:58:12;6.20;99.90
39095;DHT22;24840;47.508;19.376;2022-12-10T04:00:37;6.20;99.90
39095;DHT22;24840;47.508;19.376;2022-12-10T04:03:03;6.20;99.90
39095;DHT22;24840;47.508;19.376;2022-12-10T04:05:29;6.20;99.90
39095;DHT22;24840;47.508;19.376;2022-12-10T04:11:17;6.10;99.90
39095;DHT22;24840;47.508;19.376;2022-12-10T04:13:42;6.10;99.90
39095;DHT22;24840;47.508;19.376;2022-12-10T04:16:27;6.10;99.90
39095;DHT22;24840;47.508;19.376;2022-12-10T04:18:55;6.10;99.90
39095;DHT22;24840;47.508;19.376;2022-12-10T04:21:21;6.00;99.90
39095;DHT22;24840;47.508;19.376;2022-12-10T04:24:08;6.00;99.90
39095;DHT22;24840;47.508;19.376;2022-12-10T04:30:20;6.00;99.90
39095;DHT22;24840;47.508;19.376;2022-12-10T04:32:46;5.90;99.90
39095;DHT22;24840;47.508;19.376;2022-12-10T04:35:12;5.90;99.90
39095;DHT22;24840;47.508;19.376;2022-12-10T04:37:38;5.90;99.90
39095;DHT22;24840;47.508;19.376;2022-12-10T04:40:04;5.90;99.90
39095;DHT22;24840;47.508;19.376;2022-12-10T04:45:56;5.80;99.90
39095;DHT22;24840;47.508;19.376;2022-12-10T04:48:22;5.80;99.90
39095;DHT22;24840;47.508;19.376;2022-12-10T04:50:47;5.80;99.90
39095;DHT22;24840;47.508;19.376;2022-12-10T04:53:13;5.80;99.90
39095;DHT22;24840;47.508;19.376;2022-12-10T04:55:39;5.80;99.90
39095;DHT22;24840;47.508;19.376;2022-12-10T04:58:04;5.80;99.90
39095;DHT22;24840;47.508;19.376;2022-12-10T05:00:30;5.80;99.90
39095;DHT22;24840;47.508;19.376;2022-12-10T05:06:19;5.80;99.90
39095;DHT22;24840;47.508;19.376;2022-12-10T05:08:45;5.80;99.90
39095;DHT22;24840;47.508;19.376;2022-12-10T05:11:14;5.80;99.90
39095;DHT22;24840;47.508;19.376;2022-12-10T05:13:41;5.80;99.90
39095;DHT22;24840;47.508;19.376;2022-12-10T05:16:08;5.80;99.90
39095;DHT22;24840;47.508;19.376;2022-12-10T05:18:35;5.80;99.90
39095;DHT22;24840;47.508;19.376;2022-12-10T05:21:04;5.80;99.90
39095;DHT22;24840;47.508;19.376;2022-12-10T05:23:30;5.70;99.90
39095;DHT22;24840;47.508;19.376;2022-12-10T05:26:12;5.70;99.90
39095;DHT22;24840;47.508;19.376;2022-12-10T05:28:43;5.70;99.90
39095;DHT22;24840;47.508;19.376;2022-12-10T05:31:18;5.70;99.90
39095;DHT22;24840;47.508;19.376;2022-12-10T05:33:44;5.70;99.90
39095;DHT22;24840;47.508;19.376;2022-12-10T05:36:12;5.70;99.90
39095;DHT22;24840;47.508;19.376;2022-12-10T05:38:39;5.70;99.90
39095;DHT22;24840;47.508;19.376;2022-12-10T05:41:09;5.70;99.90
39095;DHT22;24840;47.508;19.376;2022-12-10T05:43:36;5.70;99.90
39095;DHT22;24840;47.508;19.376;2022-12-10T05:46:04;5.70;99.90
39095;DHT22;24840;47.508;19.376;2022-12-10T05:48:31;5.70;99.90
39095;DHT22;24840;47.508;19.376;2022-12-10T05:50:57;5.60;99.90
39095;DHT22;24840;47.508;19.376;2022-12-10T05:53:23;5.60;99.90
39095;DHT22;24840;47.508;19.376;2022-12-10T05:55:49;5.60;99.90
39095;DHT22;24840;47.508;19.376;2022-12-10T05:58:15;5.60;99.90
39095;DHT22;24840;47.508;19.376;2022-12-10T06:00:41;5.60;99.90
39095;DHT22;24840;47.508;19.376;2022-12-10T06:03:08;5.50;99.90
39095;DHT22;24840;47.508;19.376;2022-12-10T06:05:40;5.50;99.90
39095;DHT22;24840;47.508;19.376;2022-12-10T06:08:06;5.50;99.90
39095;DHT22;24840;47.508;19.376;2022-12-10T06:10:36;5.50;99.90
39095;DHT22;24840;47.508;19.376;2022-12-10T06:13:03;5.50;99.90
39095;DHT22;24840;47.508;19.376;2022-12-10T06:15:29;5.50;99.90
39095;DHT22;24840;47.508;19.376;2022-12-10T06:17:55;5.50;99.90
39095;DHT22;24840;47.508;19.376;2022-12-10T06:23:43;5.40;99.90
39095;DHT22;24840;47.508;19.376;2022-12-10T06:26:15;5.40;99.90
39095;DHT22;24840;47.508;19.376;2022-12-10T06:28:41;5.50;99.90
39095;DHT22;24840;47.508;19.376;2022-12-10T06:31:07;5.50;99.90
39095;DHT22;24840;47.508;19.376;2022-12-10T06:33:37;5.40;99.90
39095;DHT22;24840;47.508;19.376;2022-12-10T06:36:04;5.50;99.90
39095;DHT22;24840;47.508;19.376;2022-12-10T06:38:31;5.50;99.90
39095;DHT22;24840;47.508;19.376;2022-12-10T06:40:57;5.50;99.90
39095;DHT22;24840;47.508;19.376;2022-12-10T06:43:29;5.50;99.90
39095;DHT22;24840;47.508;19.376;2022-12-10T06:45:55;5.50;99.90
39095;DHT22;24840;47.508;19.376;2022-12-10T06:48:23;5.50;99.90
39095;DHT22;24840;47.508;19.376;2022-12-10T06:50:49;5.50;99.90
39095;DHT22;24840;47.508;19.376;2022-12-10T06:53:15;5.50;99.90
39095;DHT22;24840;47.508;19.376;2022-12-10T06:55:41;5.50;99.90
39095;DHT22;24840;47.508;19.376;2022-12-10T06:58:07;5.50;99.90
39095;DHT22;24840;47.508;19.376;2022-12-10T07:00:33;5.50;99.90
39095;DHT22;24840;47.508;19.376;2022-12-10T07:02:59;5.60;99.90
39095;DHT22;24840;47.508;19.376;2022-12-10T07:05:27;5.50;99.90
39095;DHT22;24840;47.508;19.376;2022-12-10T07:07:53;5.50;99.90
39095;DHT22;24840;47.508;19.376;2022-12-10T07:10:19;5.50;99.90
39095;DHT22;24840;47.508;19.376;2022-12-10T07:16:23;5.60;99.90
39095;DHT22;24840;47.508;19.376;2022-12-10T07:18:51;5.60;99.90
39095;DHT22;24840;47.508;19.376;2022-12-10T07:21:28;5.60;99.90
39095;DHT22;24840;47.508;19.376;2022-12-10T07:23:56;5.60;99.90
39095;DHT22;24840;47.508;19.376;2022-12-10T07:26:28;5.60;99.90
39095;DHT22;24840;47.508;19.376;2022-12-10T07:28:54;5.60;99.90
39095;DHT22;24840;47.508;19.376;2022-12-10T07:31:21;5.60;99.90
39095;DHT22;24840;47.508;19.376;2022-12-10T07:33:48;5.60;99.90
39095;DHT22;24840;47.508;19.376;2022-12-10T07:36:17;5.60;99.90
39095;DHT22;24840;47.508;19.376;2022-12-10T07:38:46;5.60;99.90
39095;DHT22;24840;47.508;19.376;2022-12-10T07:41:12;5.70;99.90
39095;DHT22;24840;47.508;19.376;2022-12-10T07:43:43;5.60;99.90
39095;DHT22;24840;47.508;19.376;2022-12-10T07:46:16;5.70;99.90
39095;DHT22;24840;47.508;19.376;2022-12-10T07:48:42;5.70;99.90
39095;DHT22;24840;47.508;19.376;2022-12-10T07:51:09;5.70;99.90
39095;DHT22;24840;47.508;19.376;2022-12-10T07:53:35;5.70;99.90
39095;DHT22;24840;47.508;19.376;2022-12-10T07:56:02;5.70;99.90
39095;DHT22;24840;47.508;19.376;2022-12-10T07:58:28;5.60;99.90
39095;DHT22;24840;47.508;19.376;2022-12-10T08:00:54;5.60;99.90
39095;DHT22;24840;47.508;19.376;2022-12-10T08:03:20;5.60;99.90
39095;DHT22;24840;47.508;19.376;2022-12-10T08:05:46;5.60;99.90
39095;DHT22;24840;47.508;19.376;2022-12-10T08:08:11;5.60;99.90
39095;DHT22;24840;47.508;19.376;2022-12-10T08:10:38;5.60;99.90
39095;DHT22;24840;47.508;19.376;2022-12-10T08:13:05;5.60;99.90
39095;DHT22;24840;47.508;19.376;2022-12-10T08:15:31;5.70;99.90
39095;DHT22;24840;47.508;19.376;2022-12-10T08:17:57;5.60;99.90
39095;DHT22;24840;47.508;19.376;2022-12-10T08:20:24;5.70;99.90
39095;DHT22;24840;47.508;19.376;2022-12-10T08:22:50;5.70;99.90
39095;DHT22;24840;47.508;19.376;2022-12-10T08:25:16;5.60;99.90
39095;DHT22;24840;47.508;19.376;2022-12-10T08:31:05;5.80;99.90
39095;DHT22;24840;47.508;19.376;2022-12-10T08:33:35;5.80;99.90
39095;DHT22;24840;47.508;19.376;2022-12-10T08:36:03;5.90;99.90
39095;DHT22;24840;47.508;19.376;2022-12-10T08:38:29;6.00;99.90
39095;DHT22;24840;47.508;19.376;2022-12-10T08:40:56;6.00;99.90
39095;DHT22;24840;47.508;19.376;2022-12-10T08:43:22;6.00;99.90
39095;DHT22;24840;47.508;19.376;2022-12-10T08:45:49;5.90;99.90
39095;DHT22;24840;47.508;19.376;2022-12-10T08:48:15;6.00;99.90
39095;DHT22;24840;47.508;19.376;2022-12-10T08:54:03;6.30;99.90
39095;DHT22;24840;47.508;19.376;2022-12-10T08:56:29;6.40;99.90
39095;DHT22;24840;47.508;19.376;2022-12-10T08:59:01;6.30;99.90
39095;DHT22;24840;47.508;19.376;2022-12-10T09:01:31;6.30;99.90
39095;DHT22;24840;47.508;19.376;2022-12-10T09:06:31;6.30;99.90
39095;DHT22;24840;47.508;19.376;2022-12-10T09:08:57;6.40;99.90
39095;DHT22;24840;47.508;19.376;2022-12-10T09:11:32;6.40;99.90
39095;DHT22;24840;47.508;19.376;2022-12-10T09:13:58;6.40;99.90
39095;DHT22;24840;47.508;19.376;2022-12-10T09:16:36;6.30;99.90
39095;DHT22;24840;47.508;19.376;2022-12-10T09:19:03;6.30;99.90
39095;DHT22;24840;47.508;19.376;2022-12-10T09:21:29;6.40;99.90
39095;DHT22;24840;47.508;19.376;2022-12-10T09:23:56;6.40;99.90
39095;DHT22;24840;47.508;19.376;2022-12-10T09:26:22;6.30;99.90
39095;DHT22;24840;47.508;19.376;2022-12-10T09:28:48;6.20;99.90
39095;DHT22;24840;47.508;19.376;2022-12-10T09:31:16;6.20;99.90
39095;DHT22;24840;47.508;19.376;2022-12-10T09:33:43;6.20;99.90
39095;DHT22;24840;47.508;19.376;2022-12-10T09:36:11;6.20;99.90
39095;DHT22;24840;47.508;19.376;2022-12-10T09:38:38;6.30;99.90
39095;DHT22;24840;47.508;19.376;2022-12-10T09:49:20;6.20;99.90
39095;DHT22;24840;47.508;19.376;2022-12-10T09:51:43;6.20;99.90
39095;DHT22;24840;47.508;19.376;2022-12-10T09:54:33;6.30;99.90
39095;DHT22;24840;47.508;19.376;2022-12-10T09:57:00;6.40;99.90
39095;DHT22;24840;47.508;19.376;2022-12-10T09:59:38;6.30;99.90
39095;DHT22;24840;47.508;19.376;2022-12-10T10:02:31;6.30;99.90
39095;DHT22;24840;47.508;19.376;2022-12-10T10:07:44;6.30;99.90
39095;DHT22;24840;47.508;19.376;2022-12-10T10:12:45;6.30;99.90
39095;DHT22;24840;47.508;19.376;2022-12-10T10:15:19;6.30;99.90
39095;DHT22;24840;47.508;19.376;2022-12-10T10:17:47;6.30;99.90
39095;DHT22;24840;47.508;19.376;2022-12-10T10:20:15;6.20;99.90
39095;DHT22;24840;47.508;19.376;2022-12-10T10:22:41;6.20;99.90
39095;DHT22;24840;47.508;19.376;2022-12-10T10:25:16;6.10;99.90
39095;DHT22;24840;47.508;19.376;2022-12-10T10:27:42;6.00;99.90
39095;DHT22;24840;47.508;19.376;2022-12-10T10:30:20;6.00;99.90
39095;DHT22;24840;47.508;19.376;2022-12-10T10:32:54;5.90;99.90
39095;DHT22;24840;47.508;19.376;2022-12-10T10:35:40;6.00;99.90
39095;DHT22;24840;47.508;19.376;2022-12-10T10:38:26;5.90;99.90
39095;DHT22;24840;47.508;19.376;2022-12-10T10:40:57;6.00;99.90
39095;DHT22;24840;47.508;19.376;2022-12-10T10:43:31;6.00;99.90
39095;DHT22;24840;47.508;19.376;2022-12-10T10:48:36;6.10;99.90
39095;DHT22;24840;47.508;19.376;2022-12-10T10:53:45;6.10;99.90
39095;DHT22;24840;47.508;19.376;2022-12-10T10:56:21;5.90;99.90
39095;DHT22;24840;47.508;19.376;2022-12-10T10:58:52;5.90;99.90
39095;DHT22;24840;47.508;19.376;2022-12-10T11:01:19;5.70;99.90
39095;DHT22;24840;47.508;19.376;2022-12-10T11:03:53;5.70;99.90
39095;DHT22;24840;47.508;19.376;2022-12-10T11:06:20;5.70;99.90
39095;DHT22;24840;47.508;19.376;2022-12-10T11:08:47;5.70;99.90
39095;DHT22;24840;47.508;19.376;2022-12-10T11:11:24;5.80;99.90
39095;DHT22;24840;47.508;19.376;2022-12-10T11:13:50;5.80;99.90
39095;DHT22;24840;47.508;19.376;2022-12-10T11:16:22;5.80;99.90
39095;DHT22;24840;47.508;19.376;2022-12-10T11:18:58;5.80;99.90
39095;DHT22;24840;47.508;19.376;2022-12-10T11:21:29;5.80;99.90
39095;DHT22;24840;47.508;19.376;2022-12-10T11:23:56;5.80;99.90
39095;DHT22;24840;47.508;19.376;2022-12-10T11:37:34;5.70;99.90
39095;DHT22;24840;47.508;19.376;2022-12-10T11:48:49;5.80;99.90
39095;DHT22;24840;47.508;19.376;2022-12-10T11:54:25;5.80;99.90
39095;DHT22;24840;47.508;19.376;2022-12-10T12:08:16;5.80;99.90
39095;DHT22;24840;47.508;19.376;2022-12-10T12:11:22;5.80;99.90
39095;DHT22;24840;47.508;19.376;2022-12-10T12:16:46;5.80;99.90
39095;DHT22;24840;47.508;19.376;2022-12-10T12:19:46;5.80;99.90
39095;DHT22;24840;47.508;19.376;2022-12-10T12:22:25;5.80;99.90
39095;DHT22;24840;47.508;19.376;2022-12-10T12:24:59;5.90;99.90
39095;DHT22;24840;47.508;19.376;2022-12-10T12:27:39;5.90;99.90
39095;DHT22;24840;47.508;19.376;2022-12-10T12:33:28;5.90;99.90
39095;DHT22;24840;47.508;19.376;2022-12-10T12:36:06;5.80;99.90
39095;DHT22;24840;47.508;19.376;2022-12-10T12:44:26;5.80;99.90
39095;DHT22;24840;47.508;19.376;2022-12-10T12:46:56;5.80;99.90
39095;DHT22;24840;47.508;19.376;2022-12-10T12:49:34;5.80;99.90
39095;DHT22;24840;47.508;19.376;2022-12-10T12:55:02;5.70;99.90
39095;DHT22;24840;47.508;19.376;2022-12-10T12:57:46;5.80;99.90
39095;DHT22;24840;47.508;19.376;2022-12-10T13:00:20;5.70;99.90
39095;DHT22;24840;47.508;19.376;2022-12-10T13:05:38;5.70;99.90
39095;DHT22;24840;47.508;19.376;2022-12-10T13:13:38;5.70;99.90
39095;DHT22;24840;47.508;19.376;2022-12-10T13:30:02;5.70;99.90
39095;DHT22;24840;47.508;19.376;2022-12-10T13:37:36;5.50;99.90
39095;DHT22;24840;47.508;19.376;2022-12-10T13:42:35;5.60;99.90
39095;DHT22;24840;47.508;19.376;2022-12-10T13:47:51;5.50;99.90
39095;DHT22;24840;47.508;19.376;2022-12-10T14:05:14;5.40;99.90
39095;DHT22;24840;47.508;19.376;2022-12-10T14:07:45;5.40;99.90
39095;DHT22;24840;47.508;19.376;2022-12-10T14:10:16;5.40;99.90
39095;DHT22;24840;47.508;19.376;2022-12-10T14:12:44;5.40;99.90
39095;DHT22;24840;47.508;19.376;2022-12-10T14:15:24;5.40;99.90
39095;DHT22;24840;47.508;19.376;2022-12-10T14:18:04;5.40;99.90
39095;DHT22;24840;47.508;19.376;2022-12-10T14:20:34;5.40;99.90
39095;DHT22;24840;47.508;19.376;2022-12-10T14:23:05;5.30;99.90
39095;DHT22;24840;47.508;19.376;2022-12-10T14:29:00;5.20;99.90
39095;DHT22;24840;47.508;19.376;2022-12-10T14:31:44;5.30;99.90
39095;DHT22;24840;47.508;19.376;2022-12-10T14:34:15;5.30;99.90
39095;DHT22;24840;47.508;19.376;2022-12-10T14:36:48;5.30;99.90
39095;DHT22;24840;47.508;19.376;2022-12-10T14:39:17;5.20;99.90
39095;DHT22;24840;47.508;19.376;2022-12-10T14:41:45;5.20;99.90
39095;DHT22;24840;47.508;19.376;2022-12-10T14:44:15;5.20;99.90
39095;DHT22;24840;47.508;19.376;2022-12-10T14:46:42;5.20;99.90
39095;DHT22;24840;47.508;19.376;2022-12-10T14:49:23;5.20;99.90
39095;DHT22;24840;47.508;19.376;2022-12-10T14:51:50;5.20;99.90
39095;DHT22;24840;47.508;19.376;2022-12-10T14:54:27;5.20;99.90
39095;DHT22;24840;47.508;19.376;2022-12-10T14:56:55;5.10;99.90
39095;DHT22;24840;47.508;19.376;2022-12-10T14:59:25;5.10;99.90
39095;DHT22;24840;47.508;19.376;2022-12-10T15:01:57;5.10;99.90
39095;DHT22;24840;47.508;19.376;2022-12-10T15:04:38;5.10;99.90
39095;DHT22;24840;47.508;19.376;2022-12-10T15:07:05;5.10;99.90
39095;DHT22;24840;47.508;19.376;2022-12-10T15:09:32;5.10;99.90
39095;DHT22;24840;47.508;19.376;2022-12-10T15:11:59;5.20;99.90
39095;DHT22;24840;47.508;19.376;2022-12-10T15:14:27;5.10;99.90
39095;DHT22;24840;47.508;19.376;2022-12-10T15:16:54;5.10;99.90
39095;DHT22;24840;47.508;19.376;2022-12-10T15:21:51;5.10;99.90
39095;DHT22;24840;47.508;19.376;2022-12-10T15:24:26;5.10;99.90
39095;DHT22;24840;47.508;19.376;2022-12-10T15:26:53;5.00;99.90
39095;DHT22;24840;47.508;19.376;2022-12-10T15:31:48;4.90;99.90
39095;DHT22;24840;47.508;19.376;2022-12-10T15:34:14;5.00;99.90
39095;DHT22;24840;47.508;19.376;2022-12-10T15:37:03;4.90;99.90
39095;DHT22;24840;47.508;19.376;2022-12-10T15:39:53;4.90;99.90
39095;DHT22;24840;47.508;19.376;2022-12-10T15:45:02;5.00;99.90
39095;DHT22;24840;47.508;19.376;2022-12-10T15:47:30;5.00;99.90
39095;DHT22;24840;47.508;19.376;2022-12-10T15:49:58;4.90;99.90
39095;DHT22;24840;47.508;19.376;2022-12-10T15:52:29;4.90;99.90
39095;DHT22;24840;47.508;19.376;2022-12-10T15:54:56;4.90;99.90
39095;DHT22;24840;47.508;19.376;2022-12-10T15:57:34;4.90;99.90
39095;DHT22;24840;47.508;19.376;2022-12-10T16:00:06;4.90;99.90
39095;DHT22;24840;47.508;19.376;2022-12-10T16:02:38;4.90;99.90
39095;DHT22;24840;47.508;19.376;2022-12-10T16:07:37;4.90;99.90
39095;DHT22;24840;47.508;19.376;2022-12-10T16:10:03;5.00;99.90
39095;DHT22;24840;47.508;19.376;2022-12-10T16:12:30;5.00;99.90
39095;DHT22;24840;47.508;19.376;2022-12-10T16:14:57;5.00;99.90
39095;DHT22;24840;47.508;19.376;2022-12-10T16:17:29;5.00;99.90
39095;DHT22;24840;47.508;19.376;2022-12-10T16:20:23;5.00;99.90
39095;DHT22;24840;47.508;19.376;2022-12-10T16:22:50;5.00;99.90
39095;DHT22;24840;47.508;19.376;2022-12-10T16:25:16;5.00;99.90
39095;DHT22;24840;47.508;19.376;2022-12-10T16:27:42;4.90;99.90
39095;DHT22;24840;47.508;19.376;2022-12-10T16:30:34;5.00;99.90
39095;DHT22;24840;47.508;19.376;2022-12-10T16:33:01;5.00;99.90
39095;DHT22;24840;47.508;19.376;2022-12-10T16:35:27;5.00;99.90
39095;DHT22;24840;47.508;19.376;2022-12-10T16:37:52;5.00;99.90
39095;DHT22;24840;47.508;19.376;2022-12-10T16:40:22;5.00;99.90
39095;DHT22;24840;47.508;19.376;2022-12-10T16:42:49;4.90;99.90
39095;DHT22;24840;47.508;19.376;2022-12-10T16:45:31;5.00;99.90
39095;DHT22;24840;47.508;19.376;2022-12-10T16:47:58;5.00;99.90
39095;DHT22;24840;47.508;19.376;2022-12-10T16:50:25;5.00;99.90
39095;DHT22;24840;47.508;19.376;2022-12-10T16:52:52;5.00;99.90
39095;DHT22;24840;47.508;19.376;2022-12-10T16:55:20;5.00;99.90
39095;DHT22;24840;47.508;19.376;2022-12-10T16:57:47;5.00;99.90
39095;DHT22;24840;47.508;19.376;2022-12-10T17:00:18;5.10;99.90
39095;DHT22;24840;47.508;19.376;2022-12-10T17:02:48;5.10;99.90
39095;DHT22;24840;47.508;19.376;2022-12-10T17:05:39;5.00;99.90
39095;DHT22;24840;47.508;19.376;2022-12-10T17:08:02;5.10;99.90
39095;DHT22;24840;47.508;19.376;2022-12-10T17:10:29;5.00;99.90
39095;DHT22;24840;47.508;19.376;2022-12-10T17:13:22;5.10;99.90
39095;DHT22;24840;47.508;19.376;2022-12-10T17:15:48;5.00;99.90
39095;DHT22;24840;47.508;19.376;2022-12-10T17:18:16;5.00;99.90
39095;DHT22;24840;47.508;19.376;2022-12-10T17:20:46;5.00;99.90
39095;DHT22;24840;47.508;19.376;2022-12-10T17:23:12;5.10;99.90
39095;DHT22;24840;47.508;19.376;2022-12-10T17:25:39;5.10;99.90
39095;DHT22;24840;47.508;19.376;2022-12-10T17:28:06;5.10;99.90
39095;DHT22;24840;47.508;19.376;2022-12-10T17:30:32;5.00;99.90
39095;DHT22;24840;47.508;19.376;2022-12-10T17:32:57;5.10;99.90
39095;DHT22;24840;47.508;19.376;2022-12-10T17:35:23;5.10;99.90
39095;DHT22;24840;47.508;19.376;2022-12-10T17:37:49;5.00;99.90
39095;DHT22;24840;47.508;19.376;2022-12-10T17:40:20;5.10;99.90
39095;DHT22;24840;47.508;19.376;2022-12-10T17:42:46;5.10;99.90
39095;DHT22;24840;47.508;19.376;2022-12-10T17:45:14;5.10;99.90
39095;DHT22;24840;47.508;19.376;2022-12-10T17:47:41;5.10;99.90
39095;DHT22;24840;47.508;19.376;2022-12-10T17:50:35;5.10;99.90
39095;DHT22;24840;47.508;19.376;2022-12-10T17:53:02;5.20;99.90
39095;DHT22;24840;47.508;19.376;2022-12-10T17:55:28;5.10;99.90
39095;DHT22;24840;47.508;19.376;2022-12-10T17:57:54;5.10;99.90
39095;DHT22;24840;47.508;19.376;2022-12-10T18:00:22;5.10;99.90
39095;DHT22;24840;47.508;19.376;2022-12-10T18:02:49;5.10;99.90
39095;DHT22;24840;47.508;19.376;2022-12-10T18:05:15;5.10;99.90
39095;DHT22;24840;47.508;19.376;2022-12-10T18:07:41;5.10;99.90
39095;DHT22;24840;47.508;19.376;2022-12-10T18:10:45;5.10;99.90
39095;DHT22;24840;47.508;19.376;2022-12-10T18:13:04;5.10;99.90
39095;DHT22;24840;47.508;19.376;2022-12-10T18:15:33;5.10;99.90
39095;DHT22;24840;47.508;19.376;2022-12-10T18:18:00;5.00;99.90
39095;DHT22;24840;47.508;19.376;2022-12-10T18:20:35;5.10;99.90
39095;DHT22;24840;47.508;19.376;2022-12-10T18:23:04;5.10;99.90
39095;DHT22;24840;47.508;19.376;2022-12-10T18:25:30;5.10;99.90
39095;DHT22;24840;47.508;19.376;2022-12-10T18:28:00;5.10;99.90
39095;DHT22;24840;47.508;19.376;2022-12-10T18:30:27;5.10;99.90
39095;DHT22;24840;47.508;19.376;2022-12-10T18:32:53;5.10;99.90
39095;DHT22;24840;47.508;19.376;2022-12-10T18:35:20;5.20;99.90
39095;DHT22;24840;47.508;19.376;2022-12-10T18:37:45;5.20;99.90
39095;DHT22;24840;47.508;19.376;2022-12-10T18:40:20;5.20;99.90
39095;DHT22;24840;47.508;19.376;2022-12-10T18:42:49;5.10;99.90
39095;DHT22;24840;47.508;19.376;2022-12-10T18:45:16;5.10;99.90
39095;DHT22;24840;47.508;19.376;2022-12-10T18:47:41;5.20;99.90
39095;DHT22;24840;47.508;19.376;2022-12-10T18:50:23;5.20;99.90
39095;DHT22;24840;47.508;19.376;2022-12-10T18:52:49;5.20;99.90
39095;DHT22;24840;47.508;19.376;2022-12-10T18:55:16;5.20;99.90
39095;DHT22;24840;47.508;19.376;2022-12-10T18:57:42;5.20;99.90